Time;durP1;ratioP1;P1;durP2;ratioP2;P2;SDS_P1;SDS_P2;PMS_P1;PMS_P2;Temp;Humidity;BMP_temperature;BMP_pressure;BME280_temperature;BME280_humidity;BME280_pressure;Samples;Min_cycle;Max_cycle;Signal;HPM_P1;HPM_P2
2022/01/01 08:51:59;;;;;;;;;;;;;;;6.28;82.49;98088.69;4233662;27;10353;-72
2022/01/01 08:54:02;;;;;;;;;;;;;;;6.29;82.32;98091.19;4219320;28;5655;-71
2022/01/01 08:56:07;;;;;;;;;;;;;;;6.37;82.05;98101.84;4209926;28;5872;-71
2022/01/01 08:58:09;;;;;;;;;;;;;;;6.45;81.81;98101.16;4183937;28;5748;-71
2022/01/01 09:00:26;;;;;;;;;;;;;;;6.47;81.71;98101.06;4207321;28;5733;-71
2022/01/01 09:02:28;;;;;;;;;;;;;;;6.49;81.83;98096.50;4210661;28;5631;-71
2022/01/01 09:04:29;;;;;;;;;;;;;;;6.53;81.12;98095.25;4181762;28;5666;-73
2022/01/01 09:06:32;;;;;;;;;;;;;;;6.45;81.06;98098.53;4199670;28;5650;-72
2022/01/01 09:08:37;;;;;;;;;;;;;;;6.55;80.49;98098.56;4210659;28;5635;-72
2022/01/01 09:10:39;;;;;;;;;;;;;;;6.59;81.31;98105.22;4196994;28;5736;-72
2022/01/01 09:12:40;;;;;;;;;;;;;;;6.72;80.46;98105.78;4210028;28;5623;-72
2022/01/01 09:14:42;;;;;;;;;;;;;;;6.78;80.20;98109.66;4182554;28;5738;-72
2022/01/01 09:16:50;;;;;;;;;;;;;;;6.55;80.40;98103.81;4192749;28;5873;-72
2022/01/01 09:18:52;;;;;;;;;;;;;;;6.34;81.64;98096.88;4210007;28;5717;-73
2022/01/01 09:20:54;;;;;;;;;;;;;;;6.62;80.98;98097.06;4185141;28;5947;-72
2022/01/01 09:23:00;;;;;;;;;;;;;;;6.65;80.41;98102.84;4205996;28;5639;-73
2022/01/01 09:25:02;;;;;;;;;;;;;;;6.77;80.31;98107.97;4204383;28;5781;-72
2022/01/01 09:27:05;;;;;;;;;;;;;;;6.76;80.45;98107.16;4203851;28;6409;-73
2022/01/01 09:29:10;;;;;;;;;;;;;;;6.85;79.68;98114.22;4215104;28;5635;-72
2022/01/01 09:31:12;;;;;;;;;;;;;;;6.79;80.23;98114.75;4189317;28;5744;-72
2022/01/01 09:33:14;;;;;;;;;;;;;;;6.92;79.75;98111.88;4204248;28;5652;-74
2022/01/01 09:35:17;;;;;;;;;;;;;;;6.87;79.86;98114.09;4174940;28;5939;-69
2022/01/01 09:37:20;;;;;;;;;;;;;;;6.92;79.47;98117.97;4177504;28;5991;-69
2022/01/01 09:39:21;;;;;;;;;;;;;;;6.84;79.80;98120.47;4203425;28;5643;-69
2022/01/01 09:41:23;;;;;;;;;;;;;;;6.85;79.41;98116.84;4207439;28;5646;-70
2022/01/01 09:43:28;;;;;;;;;;;;;;;6.81;79.63;98118.09;4195183;28;5753;-69
2022/01/01 09:45:30;;;;;;;;;;;;;;;6.86;79.88;98123.78;4212899;28;5752;-69
2022/01/01 09:47:32;;;;;;;;;;;;;;;6.77;80.28;98113.25;4182228;28;5732;-69
2022/01/01 09:49:34;;;;;;;;;;;;;;;6.67;81.06;98114.06;4201229;28;5651;-69
2022/01/01 09:51:35;;;;;;;;;;;;;;;6.75;81.37;98105.50;4194225;28;5779;-69
2022/01/01 09:53:38;;;;;;;;;;;;;;;6.93;80.80;98117.00;4163901;28;5749;-69
2022/01/01 09:55:40;;;;;;;;;;;;;;;6.90;81.39;98121.69;4189189;28;5758;-69
2022/01/01 09:57:41;;;;;;;;;;;;;;;6.89;81.47;98120.84;4188500;28;5754;-69
2022/01/01 09:59:43;;;;;;;;;;;;;;;7.03;81.03;98121.44;4171422;28;5741;-69
2022/01/01 10:01:45;;;;;;;;;;;;;;;6.95;81.41;98122.94;4187697;28;5639;-68
2022/01/01 10:03:52;;;;;;;;;;;;;;;6.93;81.35;98124.06;4172453;28;5974;-70
2022/01/01 10:06:02;;;;;;;;;;;;;;;6.94;81.97;98118.66;4192267;28;5643;-70
2022/01/01 10:08:10;;;;;;;;;;;;;;;6.89;82.10;98112.97;4194040;28;5742;-69
2022/01/01 10:10:22;;;;;;;;;;;;;;;6.66;84.04;98116.81;4192045;28;5777;-69
2022/01/01 10:12:43;;;;;;;;;;;;;;;6.69;84.30;98121.84;4169244;28;5843;-70
2022/01/01 10:14:46;;;;;;;;;;;;;;;6.85;83.92;98122.13;4199791;28;5757;-70
2022/01/01 10:16:49;;;;;;;;;;;;;;;7.00;82.96;98120.72;4186453;28;5975;-69
2022/01/01 10:18:53;;;;;;;;;;;;;;;7.09;82.96;98112.97;4171020;28;7056;-70
2022/01/01 10:20:57;;;;;;;;;;;;;;;7.11;82.71;98108.41;4185575;28;5773;-70
2022/01/01 10:23:09;;;;;;;;;;;;;;;6.76;84.48;98101.91;4194130;28;5738;-69
2022/01/01 10:27:42;;;;;;;;;;;;;;;7.04;82.90;98104.69;4197976;28;5869;-69
2022/01/01 10:29:44;;;;;;;;;;;;;;;7.01;82.73;98100.53;4188476;28;5818;-69
2022/01/01 10:31:58;;;;;;;;;;;;;;;6.97;82.71;98102.59;4150972;28;6000;-69
2022/01/01 10:34:08;;;;;;;;;;;;;;;7.01;82.78;98098.72;4194010;28;5631;-69
2022/01/01 10:36:10;;;;;;;;;;;;;;;6.96;82.90;98093.06;4175327;28;5812;-69
2022/01/01 10:38:14;;;;;;;;;;;;;;;6.93;83.02;98087.25;4198000;28;5810;-69
2022/01/01 10:40:28;;;;;;;;;;;;;;;7.01;82.70;98096.09;4195588;28;5727;-68
2022/01/01 10:42:30;;;;;;;;;;;;;;;7.02;82.37;98096.91;4199798;28;5805;-70
2022/01/01 10:44:34;;;;;;;;;;;;;;;6.96;82.64;98098.31;4188445;28;5906;-70
2022/01/01 10:46:39;;;;;;;;;;;;;;;6.93;82.49;98095.97;4180586;28;5859;-69
2022/01/01 10:48:55;;;;;;;;;;;;;;;6.94;82.48;98096.81;4215308;28;5715;-70
2022/01/01 10:51:00;;;;;;;;;;;;;;;6.88;82.84;98099.97;4198932;28;5778;-69
2022/01/01 10:53:13;;;;;;;;;;;;;;;6.92;82.47;98096.94;4192800;28;5738;-75
2022/01/01 10:55:16;;;;;;;;;;;;;;;6.94;82.68;98091.53;4166115;28;5847;-76
2022/01/01 10:57:42;;;;;;;;;;;;;;;7.05;82.56;98098.47;4167965;28;5871;-72
2022/01/01 10:59:43;;;;;;;;;;;;;;;6.99;82.49;98087.50;4188371;28;6438;-74
2022/01/01 11:01:49;;;;;;;;;;;;;;;7.08;82.00;98090.28;4165401;28;5121;-74
2022/01/01 11:03:55;;;;;;;;;;;;;;;7.07;82.29;98091.25;4182397;28;5572;-73
2022/01/01 11:06:15;;;;;;;;;;;;;;;7.12;81.89;98083.78;4182448;28;7691;-70
